Main page
METAR-TAF:

METAR-TAF

Airports :

Goa International Airport

Panaji, India

latitude: 15-22-51N, longitude: 073-49-53E, elevation: 56 m

Current weather observation

The report was made 1 hour and 13 minutes ago, at 07:00 UTC
Wind 14 kt from the West
Temperature 30°C
Humidity 84%
Pressure 1010 hPa
Visibility: 6000 m
Few clouds at a height of 1000 ft
Scattered clouds at a height of 1600 ft

METAR: VOGO 300700Z 27014KT 6000 FEW010 SCT016 30/27 Q1010 NOSIG

Time: 13:43 (08:13 UTC)

Forecast

The report was made 5 hours and 13 minutes ago, at 03:00 UTC
Forecast valid from 30 at 06 UTC to 30 at 15 UTC
Wind 10 kt from the West with gusts up to 20 kt
Visibility: 6000 m
Few clouds at a height of 1000 ft
Scattered clouds at a height of 1600 ft
Broken clouds at a height of 8000 ft
Temporary
from 30 at 08 UTC to 30 at 12 UTC
Visibility: 3000 m
rain

TAF: VOGO 300300Z 3006/3015 27010G20KT 6000 FEW010 SCT016 BKN080 TEMPO 3008/3012 3000 RA

Weather observations and forecasts of more than 4000 airports (METAR and TAF reports).

The available stations are represented by yellow and red dots on the map.

Hover mouse over dot to see the name of the station.

Then click to see weather observations and forecasts.

To change the map : click on the green buttons with a black cross to zoom in, on the green button with a dash to zoom out, or on the green arrows for adjacent maps.


METAR-TAF: